createdAt,value
2017-08-21T00:00:41.742Z,55.60
2017-08-21T00:03:09.234Z,55.60
2017-08-21T00:05:36.758Z,55.60
2017-08-21T00:08:04.278Z,55.50
2017-08-21T00:10:32.542Z,55.30
2017-08-21T00:13:00.059Z,55.30
2017-08-21T00:15:27.559Z,55.30
2017-08-21T00:17:55.070Z,55.30
2017-08-21T00:20:22.567Z,55.20
2017-08-21T00:22:50.084Z,55.10
2017-08-21T00:25:17.583Z,55.20
2017-08-21T00:27:45.102Z,55.20
2017-08-21T00:30:12.598Z,55.20
2017-08-21T00:32:40.118Z,55.30
2017-08-21T00:35:07.610Z,55.30
2017-08-21T00:37:35.120Z,55.20
2017-08-21T00:40:02.634Z,55.20
2017-08-21T00:42:30.134Z,55.30
2017-08-21T00:44:57.650Z,55.40
2017-08-21T00:47:25.154Z,55.50
2017-08-21T00:49:52.690Z,56.20
2017-08-21T00:52:20.950Z,55.40
2017-08-21T00:54:48.463Z,55.80
2017-08-21T00:57:15.959Z,55.80
2017-08-21T00:59:43.552Z,55.90
2017-08-21T01:02:11.059Z,56.00
2017-08-21T01:04:38.578Z,56.00
2017-08-21T01:07:06.076Z,56.20
2017-08-21T01:09:33.575Z,56.20
2017-08-21T01:12:01.874Z,56.20
2017-08-21T01:14:29.389Z,56.20
2017-08-21T01:16:56.898Z,56.40
2017-08-21T01:19:24.398Z,56.50
2017-08-21T01:21:51.909Z,56.70
2017-08-21T01:24:19.466Z,56.60
2017-08-21T01:26:46.983Z,56.70
2017-08-21T01:29:14.494Z,56.80
2017-08-21T01:31:42.036Z,57.00
2017-08-21T01:34:10.302Z,57.20
2017-08-21T01:36:37.822Z,57.10
2017-08-21T01:39:05.321Z,57.30
2017-08-21T01:41:33.606Z,57.40
2017-08-21T01:44:01.890Z,57.50
2017-08-21T01:46:30.190Z,57.50
2017-08-21T01:48:57.702Z,57.40
2017-08-21T01:51:25.203Z,57.40
2017-08-21T01:53:52.722Z,57.30
2017-08-21T01:56:20.218Z,57.30
2017-08-21T01:58:47.742Z,57.30
2017-08-21T02:01:15.235Z,57.40
2017-08-21T02:03:42.755Z,57.30
2017-08-21T02:06:10.254Z,57.20
2017-08-21T02:08:37.774Z,57.30
2017-08-21T02:11:05.330Z,57.30
2017-08-21T02:13:32.854Z,57.40
2017-08-21T02:16:00.345Z,57.50
2017-08-21T02:18:27.864Z,57.50
2017-08-21T02:20:55.367Z,57.50
2017-08-21T02:23:22.890Z,57.60
2017-08-21T02:25:50.391Z,57.60
2017-08-21T02:28:17.882Z,57.70
2017-08-21T02:30:45.398Z,57.60
2017-08-21T02:33:12.899Z,57.50
2017-08-21T02:35:40.416Z,57.40
2017-08-21T02:38:19.850Z,57.50
2017-08-21T02:40:47.371Z,57.40
2017-08-21T02:43:14.874Z,57.50
2017-08-21T02:45:42.402Z,57.50
2017-08-21T02:48:09.911Z,57.50
2017-08-21T02:50:37.417Z,57.40
2017-08-21T02:53:04.911Z,57.50
2017-08-21T02:55:32.435Z,57.40
2017-08-21T02:57:59.941Z,57.50
2017-08-21T03:00:28.237Z,57.40
2017-08-21T03:02:55.726Z,57.30
2017-08-21T03:05:23.256Z,57.30
2017-08-21T03:07:50.803Z,57.20
2017-08-21T03:10:18.299Z,57.20
2017-08-21T03:12:45.805Z,57.30
2017-08-21T03:15:14.092Z,57.80
2017-08-21T03:17:42.378Z,57.90
2017-08-21T03:20:10.646Z,57.30
2017-08-21T03:22:38.927Z,57.30
2017-08-21T03:25:06.434Z,57.20
2017-08-21T03:27:33.950Z,57.00
2017-08-21T03:30:02.219Z,56.90
2017-08-21T03:32:30.507Z,56.70
2017-08-21T03:34:58.014Z,56.70
2017-08-21T03:37:25.544Z,56.80
2017-08-21T03:39:53.046Z,56.80
2017-08-21T03:42:21.366Z,56.70
2017-08-21T03:44:48.862Z,56.70
2017-08-21T03:47:16.358Z,56.60
2017-08-21T03:49:43.890Z,56.60
2017-08-21T03:52:11.378Z,56.60
2017-08-21T03:54:38.894Z,56.70
2017-08-21T03:57:06.392Z,56.60
2017-08-21T03:59:33.918Z,56.70
2017-08-21T04:02:01.406Z,56.80
2017-08-21T04:04:28.925Z,56.80
2017-08-21T04:06:56.575Z,56.90
2017-08-21T04:09:24.091Z,56.90
2017-08-21T04:11:52.361Z,57.10
2017-08-21T04:14:19.903Z,56.90
2017-08-21T04:16:47.403Z,56.90
2017-08-21T04:19:15.678Z,57.10
2017-08-21T04:21:43.950Z,57.20
2017-08-21T04:24:12.218Z,57.40
2017-08-21T04:26:39.746Z,57.30
2017-08-21T04:29:07.250Z,57.30
2017-08-21T04:31:35.554Z,57.30
2017-08-21T04:34:03.062Z,57.20
2017-08-21T04:36:30.578Z,57.00
2017-08-21T04:38:58.078Z,57.10
2017-08-21T04:41:25.701Z,57.20
2017-08-21T04:43:53.194Z,57.40
2017-08-21T04:46:20.715Z,57.40
2017-08-21T04:48:48.214Z,57.30
2017-08-21T04:51:15.731Z,57.40
2017-08-21T04:53:43.229Z,57.40
2017-08-21T04:56:10.734Z,57.40
2017-08-21T04:58:38.249Z,57.50
2017-08-21T05:01:05.751Z,57.40
2017-08-21T05:03:33.276Z,57.40
2017-08-21T05:06:00.774Z,57.40
2017-08-21T05:08:28.306Z,57.50
2017-08-21T05:10:56.567Z,57.60
2017-08-21T05:13:24.088Z,57.50
2017-08-21T05:15:51.578Z,57.70
2017-08-21T05:18:19.103Z,57.80
2017-08-21T05:20:46.602Z,57.80
2017-08-21T05:23:14.119Z,57.50
2017-08-21T05:25:41.622Z,57.50
2017-08-21T05:28:09.145Z,57.80
2017-08-21T05:30:36.642Z,57.90
2017-08-21T05:33:04.139Z,57.80
2017-08-21T05:35:31.654Z,57.70
2017-08-21T05:37:59.154Z,57.80
2017-08-21T05:40:26.670Z,57.70
2017-08-21T05:42:54.177Z,57.60
2017-08-21T05:45:21.713Z,57.60
2017-08-21T05:47:49.974Z,57.70
2017-08-21T05:50:17.515Z,57.70
2017-08-21T05:52:45.014Z,57.70
2017-08-21T05:55:13.290Z,57.40
2017-08-21T05:57:41.563Z,57.20
2017-08-21T06:00:09.085Z,57.10
2017-08-21T06:02:36.586Z,57.10
2017-08-21T06:05:04.106Z,57.00
2017-08-21T06:07:31.623Z,57.00
2017-08-21T06:09:59.122Z,56.70
2017-08-21T06:12:26.643Z,56.90
2017-08-21T06:14:54.158Z,56.90
2017-08-21T06:17:21.668Z,56.70
2017-08-21T06:19:49.170Z,56.10
2017-08-21T06:22:16.686Z,55.90
2017-08-21T06:24:44.192Z,55.90
2017-08-21T06:27:11.706Z,55.90
2017-08-21T06:29:39.198Z,55.90
2017-08-21T06:32:06.722Z,55.60
2017-08-21T06:34:34.262Z,55.70
2017-08-21T06:37:01.786Z,55.50
2017-08-21T06:39:29.287Z,55.50
2017-08-21T06:41:56.788Z,55.70
2017-08-21T06:44:24.311Z,55.30
2017-08-21T06:46:51.814Z,55.10
2017-08-21T06:49:19.334Z,55.00
2017-08-21T06:51:46.831Z,55.30
2017-08-21T06:54:14.348Z,55.50
2017-08-21T06:56:41.857Z,55.40
2017-08-21T06:59:09.394Z,54.70
2017-08-21T07:01:36.899Z,55.00
2017-08-21T07:04:05.199Z,53.80
2017-08-21T07:06:32.707Z,53.80
2017-08-21T07:09:00.207Z,54.30
2017-08-21T07:11:27.717Z,54.60
2017-08-21T07:13:55.211Z,54.30
2017-08-21T07:16:23.494Z,54.40
2017-08-21T07:18:50.990Z,54.40
2017-08-21T07:21:18.531Z,54.40
2017-08-21T07:23:46.026Z,52.00
2017-08-21T07:26:13.564Z,51.40
2017-08-21T07:28:41.065Z,51.20
2017-08-21T07:31:09.346Z,53.40
2017-08-21T07:33:37.622Z,51.70
2017-08-21T07:36:05.135Z,51.60
2017-08-21T07:38:32.637Z,52.40
2017-08-21T07:41:00.153Z,52.60
2017-08-21T07:43:27.670Z,50.30
2017-08-21T07:45:55.930Z,50.80
2017-08-21T07:48:23.447Z,50.80
2017-08-21T07:50:50.939Z,50.30
2017-08-21T07:53:18.464Z,49.30
2017-08-21T07:55:45.968Z,50.70
2017-08-21T07:58:14.263Z,50.60
2017-08-21T08:00:41.770Z,50.50
2017-08-21T08:03:09.294Z,50.50
2017-08-21T08:05:36.794Z,51.50
2017-08-21T08:08:04.333Z,48.50
2017-08-21T08:10:31.818Z,49.80
2017-08-21T08:12:59.343Z,50.20
2017-08-21T08:15:26.844Z,50.60
2017-08-21T08:17:54.371Z,48.50
2017-08-21T08:20:21.866Z,48.70
2017-08-21T08:22:49.390Z,47.60
2017-08-21T08:25:16.886Z,47.60
2017-08-21T08:27:44.400Z,48.40
2017-08-21T08:30:11.914Z,47.30
2017-08-21T08:32:40.178Z,44.70
2017-08-21T08:35:07.695Z,44.70
2017-08-21T08:37:35.195Z,45.10
2017-08-21T08:40:02.758Z,43.10
2017-08-21T08:42:30.257Z,42.50
2017-08-21T08:44:57.818Z,43.70
2017-08-21T08:47:25.324Z,44.00
2017-08-21T08:49:52.858Z,44.50
2017-08-21T08:52:20.359Z,43.70
2017-08-21T08:54:48.646Z,42.90
2017-08-21T08:57:16.910Z,42.60
2017-08-21T08:59:44.452Z,42.60
2017-08-21T09:02:11.963Z,44.50
2017-08-21T09:04:39.506Z,42.40
2017-08-21T09:07:07.066Z,42.60
2017-08-21T09:09:35.335Z,41.50
2017-08-21T09:12:03.619Z,39.90
2017-08-21T09:14:31.123Z,39.90
2017-08-21T09:16:58.638Z,40.80
2017-08-21T09:19:26.142Z,42.00
2017-08-21T09:21:53.658Z,43.30
2017-08-21T09:24:21.166Z,42.60
2017-08-21T09:26:48.689Z,44.30
2017-08-21T09:29:16.203Z,44.80
2017-08-21T09:31:43.719Z,41.00
2017-08-21T09:34:11.222Z,42.30
2017-08-21T09:36:38.762Z,43.50
2017-08-21T09:39:06.271Z,40.60
2017-08-21T09:41:34.551Z,41.90
2017-08-21T09:44:02.083Z,41.90
2017-08-21T09:46:30.419Z,39.90
2017-08-21T09:48:57.938Z,39.10
2017-08-21T09:51:26.247Z,40.00
2017-08-21T09:53:53.774Z,39.80
2017-08-21T09:56:22.043Z,41.20
2017-08-21T09:58:50.326Z,39.20
2017-08-21T10:01:55.120Z,40.00
2017-08-21T10:04:22.666Z,39.50
2017-08-21T10:06:50.178Z,39.70
2017-08-21T10:09:17.700Z,38.90
2017-08-21T10:11:45.193Z,38.70
2017-08-21T10:14:12.742Z,39.10
2017-08-21T10:16:40.238Z,41.30
2017-08-21T10:19:07.786Z,41.60
2017-08-21T10:21:35.278Z,40.10
2017-08-21T10:24:02.770Z,39.70
2017-08-21T10:26:30.283Z,38.70
2017-08-21T10:28:57.807Z,38.60
2017-08-21T10:31:25.324Z,37.80
2017-08-21T10:33:52.823Z,39.30
2017-08-21T10:36:20.338Z,38.50
2017-08-21T10:38:47.839Z,38.30
2017-08-21T10:41:15.357Z,38.30
2017-08-21T10:43:42.862Z,39.60
2017-08-21T10:46:10.382Z,36.90
2017-08-21T10:48:37.883Z,38.10
2017-08-21T10:51:05.474Z,40.00
2017-08-21T10:53:32.970Z,38.90
2017-08-21T10:56:00.481Z,38.70
2017-08-21T10:58:27.974Z,38.00
2017-08-21T11:00:55.495Z,39.10
2017-08-21T11:03:22.999Z,39.00
2017-08-21T11:05:50.494Z,37.80
2017-08-21T11:08:18.011Z,37.70
2017-08-21T11:10:45.527Z,39.20
2017-08-21T11:13:13.052Z,39.90
2017-08-21T11:15:40.555Z,38.90
2017-08-21T11:18:08.103Z,39.70
2017-08-21T11:20:35.608Z,39.20
2017-08-21T11:23:03.174Z,37.80
2017-08-21T11:25:30.679Z,37.00
2017-08-21T11:27:58.203Z,36.10
2017-08-21T11:30:25.711Z,35.80
2017-08-21T11:32:53.231Z,35.70
2017-08-21T11:35:20.731Z,36.40
2017-08-21T11:37:48.317Z,36.20
2017-08-21T11:40:15.820Z,37.00
2017-08-21T11:42:43.367Z,37.30
2017-08-21T11:45:10.989Z,37.70
2017-08-21T11:47:38.487Z,36.10
2017-08-21T11:50:06.046Z,36.30
2017-08-21T11:52:33.554Z,37.60
2017-08-21T11:55:01.107Z,36.80
2017-08-21T11:57:28.593Z,35.90
2017-08-21T11:59:56.120Z,36.50
2017-08-21T12:02:23.615Z,36.30
2017-08-21T12:04:51.156Z,36.20
2017-08-21T12:07:18.657Z,35.70
2017-08-21T12:09:46.217Z,36.10
2017-08-21T12:12:13.713Z,35.50
2017-08-21T12:14:41.243Z,35.30
2017-08-21T12:17:08.730Z,33.80
2017-08-21T12:19:36.226Z,34.60
2017-08-21T12:22:03.750Z,35.30
2017-08-21T12:24:31.258Z,36.20
2017-08-21T12:26:58.773Z,36.10
2017-08-21T12:29:26.343Z,36.50
2017-08-21T12:31:53.866Z,34.90
2017-08-21T12:34:21.360Z,34.20
2017-08-21T12:36:48.890Z,34.40
2017-08-21T12:39:16.390Z,35.10
2017-08-21T12:41:43.901Z,34.60
2017-08-21T12:44:11.406Z,33.90
2017-08-21T12:46:40.771Z,34.80
2017-08-21T12:49:08.459Z,34.20
2017-08-21T12:51:35.958Z,34.50
2017-08-21T12:54:03.466Z,33.10
2017-08-21T12:56:30.975Z,34.60
2017-08-21T12:58:58.501Z,33.70
2017-08-21T13:01:26.006Z,32.70
2017-08-21T13:03:54.019Z,33.30
2017-08-21T13:06:21.524Z,33.60
2017-08-21T13:08:49.045Z,32.90
2017-08-21T13:11:16.542Z,34.40
2017-08-21T13:13:44.062Z,34.80
2017-08-21T13:16:11.563Z,33.60
2017-08-21T13:18:39.063Z,33.80
2017-08-21T13:21:06.595Z,34.70
2017-08-21T13:23:34.099Z,33.00
2017-08-21T13:26:01.615Z,34.80
2017-08-21T13:28:29.181Z,33.30
2017-08-21T13:30:56.706Z,34.90
2017-08-21T13:33:24.206Z,34.40
2017-08-21T13:35:51.723Z,33.40
2017-08-21T13:38:19.223Z,32.80
2017-08-21T13:40:46.754Z,33.80
2017-08-21T13:43:14.258Z,35.70
2017-08-21T13:45:41.762Z,35.00
2017-08-21T13:48:09.275Z,34.80
2017-08-21T13:50:36.778Z,35.00
2017-08-21T13:53:04.295Z,35.20
2017-08-21T13:55:31.869Z,38.20
2017-08-21T13:57:59.382Z,39.00
2017-08-21T14:00:26.884Z,35.30
2017-08-21T14:02:54.407Z,37.20
2017-08-21T14:05:21.906Z,34.20
2017-08-21T14:07:49.430Z,34.70
2017-08-21T14:10:16.948Z,34.70
2017-08-21T14:12:44.470Z,34.20
2017-08-21T14:15:11.962Z,34.40
2017-08-21T14:17:39.494Z,33.70
2017-08-21T14:20:07.010Z,33.80
2017-08-21T14:22:34.538Z,34.50
2017-08-21T14:25:02.087Z,33.90
2017-08-21T14:27:29.622Z,33.80
2017-08-21T14:29:57.142Z,34.30
2017-08-21T14:32:24.642Z,33.50
2017-08-21T14:34:52.162Z,33.70
2017-08-21T14:37:19.685Z,33.60
2017-08-21T14:39:47.238Z,32.90
2017-08-21T14:42:14.751Z,33.70
2017-08-21T14:44:42.274Z,34.40
2017-08-21T14:47:09.774Z,35.20
2017-08-21T14:49:37.325Z,34.50
2017-08-21T14:52:04.822Z,34.10
2017-08-21T14:54:32.334Z,33.60
2017-08-21T14:56:59.827Z,33.90
2017-08-21T14:59:27.346Z,33.20
2017-08-21T15:01:54.895Z,34.30
2017-08-21T15:04:22.439Z,34.10
2017-08-21T15:06:49.955Z,34.50
2017-08-21T15:09:17.483Z,35.60
2017-08-21T15:11:45.015Z,36.00
2017-08-21T15:14:12.524Z,34.70
2017-08-21T15:16:40.054Z,35.70
2017-08-21T15:19:07.718Z,35.30
2017-08-21T15:21:35.280Z,33.50
2017-08-21T15:24:02.808Z,33.70
2017-08-21T15:26:30.332Z,34.30
2017-08-21T15:28:57.830Z,35.20
2017-08-21T15:31:25.363Z,35.20
2017-08-21T15:33:52.918Z,34.60
2017-08-21T15:36:20.451Z,34.90
2017-08-21T15:38:47.971Z,35.80
2017-08-21T15:41:15.506Z,35.30
2017-08-21T15:43:43.027Z,35.30
2017-08-21T15:46:10.543Z,35.30
2017-08-21T15:48:38.108Z,33.40
2017-08-21T15:51:05.627Z,33.80
2017-08-21T15:53:33.215Z,34.40
2017-08-21T15:56:00.711Z,34.90
2017-08-21T15:58:28.234Z,35.30
2017-08-21T16:00:55.755Z,34.70
2017-08-21T16:03:23.283Z,34.20
2017-08-21T16:05:50.798Z,34.10
2017-08-21T16:08:18.367Z,35.00
2017-08-21T16:10:45.899Z,34.10
2017-08-21T16:13:13.458Z,32.40
2017-08-21T16:15:40.964Z,33.90
2017-08-21T16:18:08.513Z,34.00
2017-08-21T16:20:36.026Z,34.00
2017-08-21T16:23:03.529Z,34.00
2017-08-21T16:25:31.055Z,33.60
2017-08-21T16:27:58.558Z,33.50
2017-08-21T16:30:26.111Z,33.00
2017-08-21T16:32:53.611Z,32.20
2017-08-21T16:35:21.126Z,32.30
2017-08-21T16:37:48.627Z,32.00
2017-08-21T16:40:16.174Z,32.20
2017-08-21T16:42:43.670Z,33.00
2017-08-21T16:45:11.193Z,34.00
2017-08-21T16:47:38.715Z,34.50
2017-08-21T16:50:06.239Z,34.80
2017-08-21T16:52:33.736Z,35.50
2017-08-21T16:55:01.268Z,35.60
2017-08-21T16:57:28.784Z,35.70
2017-08-21T16:59:56.282Z,35.80
2017-08-21T17:02:23.803Z,35.70
2017-08-21T17:04:51.298Z,35.70
2017-08-21T17:07:18.828Z,36.10
2017-08-21T17:09:46.338Z,36.70
2017-08-21T17:12:13.866Z,36.30
2017-08-21T17:14:41.382Z,36.60
2017-08-21T17:17:08.906Z,36.70
2017-08-21T17:19:36.415Z,36.90
2017-08-21T17:22:03.934Z,37.20
2017-08-21T17:24:31.439Z,37.20
2017-08-21T17:26:58.971Z,37.40
2017-08-21T17:29:26.478Z,37.10
2017-08-21T17:31:53.983Z,37.60
2017-08-21T17:34:21.510Z,37.60
2017-08-21T17:36:49.010Z,37.60
2017-08-21T17:39:16.527Z,37.60
2017-08-21T17:41:44.030Z,38.00
2017-08-21T17:44:11.562Z,38.40
2017-08-21T17:46:39.079Z,39.20
2017-08-21T17:49:06.599Z,39.90
2017-08-21T17:51:34.118Z,40.10
2017-08-21T17:54:01.653Z,40.60
2017-08-21T17:56:29.707Z,41.00
2017-08-21T17:58:57.228Z,41.40
2017-08-21T18:01:24.732Z,41.30
2017-08-21T18:03:52.344Z,41.00
2017-08-21T18:06:19.842Z,41.50
2017-08-21T18:08:47.359Z,42.00
2017-08-21T18:11:14.910Z,42.30
2017-08-21T18:13:43.218Z,42.70
2017-08-21T18:16:10.776Z,42.60
2017-08-21T18:18:38.283Z,42.70
2017-08-21T18:21:05.802Z,42.70
2017-08-21T18:23:33.307Z,42.80
2017-08-21T18:26:00.851Z,43.00
2017-08-21T18:28:28.396Z,43.40
2017-08-21T18:30:55.923Z,43.30
2017-08-21T18:33:23.439Z,43.60
2017-08-21T18:35:50.994Z,43.80
2017-08-21T18:38:18.614Z,44.00
2017-08-21T18:40:46.150Z,44.10
2017-08-21T18:43:13.673Z,44.50
2017-08-21T18:45:41.194Z,44.80
2017-08-21T18:48:08.690Z,45.10
2017-08-21T18:50:36.187Z,45.20
2017-08-21T18:53:03.711Z,45.40
2017-08-21T18:55:31.315Z,45.70
2017-08-21T18:57:58.854Z,46.10
2017-08-21T19:00:26.364Z,46.30
2017-08-21T19:02:53.893Z,46.40
2017-08-21T19:05:21.406Z,46.70
2017-08-21T19:07:48.927Z,47.00
2017-08-21T19:10:16.446Z,47.10
2017-08-21T19:12:43.962Z,47.20
2017-08-21T19:15:11.474Z,48.00
2017-08-21T19:17:38.998Z,47.60
2017-08-21T19:20:06.501Z,47.80
2017-08-21T19:22:34.050Z,48.00
2017-08-21T19:25:01.581Z,48.00
2017-08-21T19:27:29.106Z,48.20
2017-08-21T19:29:56.600Z,48.40
2017-08-21T19:32:24.114Z,48.50
2017-08-21T19:34:51.662Z,48.60
2017-08-21T19:37:19.167Z,48.80
2017-08-21T19:39:46.686Z,49.00
2017-08-21T19:42:14.202Z,49.30
2017-08-21T19:44:41.819Z,49.40
2017-08-21T19:47:09.379Z,49.00
2017-08-21T19:49:36.905Z,49.60
2017-08-21T19:52:04.542Z,49.70
2017-08-21T19:54:32.074Z,49.90
2017-08-21T19:56:59.580Z,50.00
2017-08-21T19:59:27.098Z,50.10
2017-08-21T20:01:54.658Z,50.20
2017-08-21T20:04:22.209Z,50.20
2017-08-21T20:06:49.715Z,50.30
2017-08-21T20:09:17.260Z,50.40
2017-08-21T20:11:44.876Z,50.00
2017-08-21T20:14:12.418Z,50.50
2017-08-21T20:16:39.927Z,50.80
2017-08-21T20:19:07.432Z,51.00
2017-08-21T20:21:34.967Z,51.20
2017-08-21T20:24:02.539Z,51.30
2017-08-21T20:26:30.082Z,51.40
2017-08-21T20:28:58.716Z,51.50
2017-08-21T20:31:26.254Z,51.60
2017-08-21T20:33:53.793Z,51.60
2017-08-21T20:36:21.311Z,51.80
2017-08-21T20:38:48.819Z,52.10
2017-08-21T20:41:16.354Z,52.00
2017-08-21T20:43:43.869Z,52.00
2017-08-21T20:46:11.387Z,52.10
2017-08-21T20:48:38.887Z,52.20
2017-08-21T20:51:06.407Z,52.40
2017-08-21T20:53:33.907Z,52.40
2017-08-21T20:56:01.422Z,52.60
2017-08-21T20:58:28.983Z,52.50
2017-08-21T21:00:56.514Z,52.60
2017-08-21T21:03:24.026Z,52.70
2017-08-21T21:05:51.551Z,52.80
2017-08-21T21:08:19.071Z,52.90
2017-08-21T21:10:46.576Z,53.00
2017-08-21T21:13:14.094Z,53.10
2017-08-21T21:15:41.590Z,53.20
2017-08-21T21:18:09.116Z,53.20
2017-08-21T21:20:36.626Z,53.10
2017-08-21T21:23:04.158Z,53.10
2017-08-21T21:25:31.661Z,53.20
2017-08-21T21:27:59.211Z,53.30
2017-08-21T21:30:26.711Z,53.20
2017-08-21T21:32:54.229Z,53.30
2017-08-21T21:35:21.726Z,53.20
2017-08-21T21:37:49.242Z,53.20
2017-08-21T21:40:17.514Z,53.50
2017-08-21T21:42:45.053Z,53.40
2017-08-21T21:45:12.587Z,53.50
2017-08-21T21:47:40.091Z,53.60
2017-08-21T21:50:07.633Z,53.80
2017-08-21T21:52:35.143Z,53.70
2017-08-21T21:55:02.683Z,53.70
2017-08-21T21:57:30.206Z,53.70
2017-08-21T21:59:57.727Z,53.70
2017-08-21T22:02:25.218Z,53.80
2017-08-21T22:04:52.747Z,53.90
2017-08-21T22:07:20.262Z,53.90
2017-08-21T22:09:47.799Z,54.10
2017-08-21T22:12:15.295Z,54.20
2017-08-21T22:14:42.822Z,54.20
2017-08-21T22:17:10.329Z,54.30
2017-08-21T22:19:37.858Z,54.30
2017-08-21T22:22:05.378Z,54.20
2017-08-21T22:24:32.895Z,54.20
2017-08-21T22:27:00.431Z,54.00
2017-08-21T22:29:27.931Z,54.00
2017-08-21T22:31:55.463Z,53.90
2017-08-21T22:34:22.982Z,53.90
2017-08-21T22:36:50.511Z,54.00
2017-08-21T22:39:18.022Z,53.90
2017-08-21T22:41:45.558Z,54.00
2017-08-21T22:44:13.062Z,54.00
2017-08-21T22:46:40.578Z,54.00
2017-08-21T22:49:08.091Z,54.00
2017-08-21T22:51:35.619Z,54.10
2017-08-21T22:54:03.121Z,53.90
2017-08-21T22:56:31.273Z,54.00
2017-08-21T22:58:58.782Z,54.00
2017-08-21T23:01:38.262Z,54.00
2017-08-21T23:04:05.779Z,54.10
2017-08-21T23:06:33.297Z,54.20
2017-08-21T23:09:00.823Z,54.20
2017-08-21T23:11:28.330Z,54.30
2017-08-21T23:13:55.855Z,54.30
2017-08-21T23:16:23.362Z,54.20
2017-08-21T23:18:50.934Z,54.30
2017-08-21T23:21:18.441Z,54.30
2017-08-21T23:23:45.959Z,54.40
2017-08-21T23:26:13.455Z,54.50
2017-08-21T23:28:40.983Z,54.50
2017-08-21T23:31:08.495Z,54.60
2017-08-21T23:33:36.087Z,54.60
2017-08-21T23:36:03.587Z,54.60
2017-08-21T23:38:31.128Z,54.60
2017-08-21T23:40:58.663Z,54.60
2017-08-21T23:43:26.168Z,54.70
2017-08-21T23:45:53.682Z,54.60
2017-08-21T23:48:21.179Z,54.70
2017-08-21T23:50:48.695Z,54.60
2017-08-21T23:53:16.194Z,54.70
2017-08-21T23:55:43.731Z,54.80
2017-08-21T23:58:11.242Z,54.80
